Masuei Maru No31 — JI3555 — position and weather

sailwx.info

Track history (hours):
 
Tides and Currents Weather Stations Pressure Air Temp Water Temp Dewpoint Dewpoint Depression Visibility Wind Speed Wind Dir Waves Ship Positions

Masuei Maru No31

Last reported at 2018-Jun-19 04:20 UTC. Time now 2018-Jun-19 15:47 UTC.
Position N 34°09' E 135°07'.

Length 32 m.

Type: Tug. MMSI: 431300667.

Date/timePositionNaut miles runAvg speedWind from/ knotsBaromVisibWave heightAir tempDewpointWater temp
2018-Jun-19 04:20N 34°09' E 135°07'2 3.4
2018-Jun-19 03:41N 34°07' E 135°07'0 0.0
2018-Jun-19 03:14N 34°07' E 135°07'0 0.7
2018-Jun-19 02:45N 34°07' E 135°06'1 0.8
2018-Jun-19 01:00N 34°08' E 135°05'2 2.8
2018-Jun-19 00:11N 34°07' E 135°08'1 3.2
2018-Jun-18 23:50N 34°08' E 135°07'1 2.0
2018-Jun-18 23:29N 34°09' E 135°07'4 8.8
2018-Jun-18 23:01N 34°13' E 135°07'2 0.1
2018-Jun-18 02:07N 34°14' E 135°06'1 5.9
2018-Jun-18 01:57N 34°14' E 135°08'2 3.0
2018-Jun-18 01:23N 34°14' E 135°05'1 0.1
2018-Jun-17 08:16N 34°13' E 135°07'1 3.0
2018-Jun-17 07:56N 34°14' E 135°07'0 0.8
2018-Jun-17 07:29N 34°14' E 135°07'  
2018-Jun-15 02:19N 34°13' E 135°07'311.0
2018-Jun-15 02:00N 34°09' E 135°06'2 0.5
2018-Jun-14 22:15N 34°08' E 135°06'310.1
2018-Jun-14 21:57N 34°11' E 135°06'3 0.4
2018-Jun-14 12:46N 34°13' E 135°09'3 8.2
2018-Jun-14 12:24N 34°14' E 135°06'1 1.2
2018-Jun-14 11:27N 34°14' E 135°07'1 3.0
2018-Jun-14 10:59N 34°14' E 135°05'1 1.6
2018-Jun-14 10:30N 34°14' E 135°06'3 2.8
2018-Jun-14 09:32N 34°13' E 135°09'0 0.0
2018-Jun-14 09:17N 34°13' E 135°09'0 0.0
2018-Jun-14 08:59N 34°13' E 135°09'0 0.0
2018-Jun-14 07:53N 34°13' E 135°09'0 0.0
2018-Jun-14 07:23N 34°13' E 135°09'0 0.0
2018-Jun-14 06:14N 34°13' E 135°09'0 0.0
2018-Jun-14 05:57N 34°13' E 135°09'3 4.8
2018-Jun-14 05:19N 34°14' E 135°05'1 2.0
2018-Jun-14 04:49N 34°14' E 135°06'1 1.7
2018-Jun-14 04:29N 34°14' E 135°06'2 0.1
2018-Jun-12 22:49N 34°13' E 135°08'2 4.7
2018-Jun-12 22:29N 34°14' E 135°07'1 1.8
2018-Jun-12 21:55N 34°14' E 135°08'1 1.3
2018-Jun-12 21:30N 34°14' E 135°07'1 2.3
2018-Jun-12 20:54N 34°15' E 135°05'1 2.5
2018-Jun-12 20:30N 34°14' E 135°06'2 0.1
2018-Jun-11 23:41N 34°13' E 135°08'2 8.3
2018-Jun-11 23:30N 34°13' E 135°07'1 2.1
2018-Jun-11 22:58N 34°14' E 135°08'1 2.0
2018-Jun-11 22:29N 34°14' E 135°07'0 0.2
2018-Jun-11 21:58N 34°14' E 135°06'1 1.7
2018-Jun-11 21:29N 34°14' E 135°06'2 0.2
2018-Jun-11 09:28N 34°13' E 135°08'5 9.3
2018-Jun-11 08:58N 34°08' E 135°07'1 0.5
2018-Jun-11 07:52N 34°08' E 135°07'4 6.7
2018-Jun-11 07:15N 34°12' E 135°07'2 7.0
2018-Jun-11 07:00N 34°13' E 135°09'1 0.2
2018-Jun-10 22:34N 34°13' E 135°07'1 9.6
2018-Jun-10 22:31N 34°13' E 135°06'1 2.4
2018-Jun-10 22:00N 34°14' E 135°08'2 2.4
2018-Jun-10 21:20N 34°14' E 135°06'  
Track history (hours):
 
Tides and Currents Weather Stations Pressure Air Temp Water Temp Dewpoint Dewpoint Depression Visibility Wind Speed Wind Dir Waves Ship Positions

Masuei Maru No31

Last reported at 2018-Jun-19 04:20 UTC. Time now 2018-Jun-19 15:47 UTC.
Position N 34°09' E 135°07'.

Length 32 m.

Type: Tug. MMSI: 431300667.

Date/timePositionNaut miles runAvg speedWind from/ knotsBaromVisibWave heightAir tempDewpointWater temp
2018-Jun-19 04:20N 34°09' E 135°07'2 3.4
2018-Jun-19 03:41N 34°07' E 135°07'0 0.0
2018-Jun-19 03:14N 34°07' E 135°07'0 0.7
2018-Jun-19 02:45N 34°07' E 135°06'1 0.8
2018-Jun-19 01:00N 34°08' E 135°05'2 2.8
2018-Jun-19 00:11N 34°07' E 135°08'1 3.2
2018-Jun-18 23:50N 34°08' E 135°07'1 2.0
2018-Jun-18 23:29N 34°09' E 135°07'4 8.8
2018-Jun-18 23:01N 34°13' E 135°07'2 0.1
2018-Jun-18 02:07N 34°14' E 135°06'1 5.9
2018-Jun-18 01:57N 34°14' E 135°08'2 3.0
2018-Jun-18 01:23N 34°14' E 135°05'1 0.1
2018-Jun-17 08:16N 34°13' E 135°07'1 3.0
2018-Jun-17 07:56N 34°14' E 135°07'0 0.8
2018-Jun-17 07:29N 34°14' E 135°07'  
2018-Jun-15 02:19N 34°13' E 135°07'311.0
2018-Jun-15 02:00N 34°09' E 135°06'2 0.5
2018-Jun-14 22:15N 34°08' E 135°06'310.1
2018-Jun-14 21:57N 34°11' E 135°06'3 0.4
2018-Jun-14 12:46N 34°13' E 135°09'3 8.2
2018-Jun-14 12:24N 34°14' E 135°06'1 1.2
2018-Jun-14 11:27N 34°14' E 135°07'1 3.0
2018-Jun-14 10:59N 34°14' E 135°05'1 1.6
2018-Jun-14 10:30N 34°14' E 135°06'3 2.8
2018-Jun-14 09:32N 34°13' E 135°09'0 0.0
2018-Jun-14 09:17N 34°13' E 135°09'0 0.0
2018-Jun-14 08:59N 34°13' E 135°09'0 0.0
2018-Jun-14 07:53N 34°13' E 135°09'0 0.0
2018-Jun-14 07:23N 34°13' E 135°09'0 0.0
2018-Jun-14 06:14N 34°13' E 135°09'0 0.0
2018-Jun-14 05:57N 34°13' E 135°09'3 4.8
2018-Jun-14 05:19N 34°14' E 135°05'1 2.0
2018-Jun-14 04:49N 34°14' E 135°06'1 1.7
2018-Jun-14 04:29N 34°14' E 135°06'2 0.1
2018-Jun-12 22:49N 34°13' E 135°08'2 4.7
2018-Jun-12 22:29N 34°14' E 135°07'1 1.8
2018-Jun-12 21:55N 34°14' E 135°08'1 1.3
2018-Jun-12 21:30N 34°14' E 135°07'1 2.3
2018-Jun-12 20:54N 34°15' E 135°05'1 2.5
2018-Jun-12 20:30N 34°14' E 135°06'2 0.1
2018-Jun-11 23:41N 34°13' E 135°08'2 8.3
2018-Jun-11 23:30N 34°13' E 135°07'1 2.1
2018-Jun-11 22:58N 34°14' E 135°08'1 2.0
2018-Jun-11 22:29N 34°14' E 135°07'0 0.2
2018-Jun-11 21:58N 34°14' E 135°06'1 1.7
2018-Jun-11 21:29N 34°14' E 135°06'2 0.2
2018-Jun-11 09:28N 34°13' E 135°08'5 9.3
2018-Jun-11 08:58N 34°08' E 135°07'1 0.5
2018-Jun-11 07:52N 34°08' E 135°07'4 6.7
2018-Jun-11 07:15N 34°12' E 135°07'2 7.0
2018-Jun-11 07:00N 34°13' E 135°09'1 0.2
2018-Jun-10 22:34N 34°13' E 135°07'1 9.6
2018-Jun-10 22:31N 34°13' E 135°06'1 2.4
2018-Jun-10 22:00N 34°14' E 135°08'2 2.4
2018-Jun-10 21:20N 34°14' E 135°06'  

Dump ship's entire track history